createdAt,value
2023-05-07T00:00:00.825Z,1
2023-05-07T00:05:00.695Z,3
2023-05-07T00:10:00.607Z,3
2023-05-07T00:15:00.634Z,3
2023-05-07T00:20:00.597Z,3
2023-05-07T00:25:00.655Z,2
2023-05-07T00:30:00.608Z,1
2023-05-07T00:35:00.641Z,3
2023-05-07T00:40:00.611Z,1
2023-05-07T00:45:00.630Z,2
2023-05-07T00:50:00.600Z,2
2023-05-07T00:55:00.617Z,1
2023-05-07T01:00:00.632Z,3
2023-05-07T01:05:00.635Z,3
2023-05-07T01:10:00.643Z,3
2023-05-07T01:15:00.641Z,3
2023-05-07T01:20:00.606Z,3
2023-05-07T01:25:00.681Z,3
2023-05-07T01:30:00.745Z,3
2023-05-07T01:35:00.648Z,3
2023-05-07T01:40:00.607Z,2
2023-05-07T01:45:00.630Z,3
2023-05-07T01:50:00.605Z,3
2023-05-07T01:55:00.646Z,4
2023-05-07T02:00:00.648Z,3
2023-05-07T02:05:00.629Z,3
2023-05-07T02:10:00.619Z,3
2023-05-07T02:15:00.650Z,1
2023-05-07T02:20:00.664Z,3
2023-05-07T02:25:00.631Z,4
2023-05-07T02:30:00.641Z,3
2023-05-07T02:35:00.639Z,2
2023-05-07T02:40:00.634Z,3
2023-05-07T02:45:00.631Z,3
2023-05-07T02:50:00.673Z,5
2023-05-07T02:55:00.652Z,3
2023-05-07T03:00:00.645Z,3
2023-05-07T03:05:00.648Z,4
2023-05-07T03:10:01.201Z,5
2023-05-07T03:15:00.642Z,2
2023-05-07T03:20:00.626Z,4
2023-05-07T03:25:00.677Z,2
2023-05-07T03:30:00.678Z,4
2023-05-07T03:35:00.627Z,4
2023-05-07T03:40:00.630Z,3
2023-05-07T03:45:00.649Z,4
2023-05-07T03:50:00.606Z,4
2023-05-07T03:55:00.656Z,3
2023-05-07T04:00:00.599Z,4
2023-05-07T04:05:00.629Z,3
2023-05-07T04:10:00.641Z,4
2023-05-07T04:15:00.631Z,4
2023-05-07T04:20:00.617Z,4
2023-05-07T04:25:00.633Z,5
2023-05-07T04:30:00.663Z,4
2023-05-07T04:35:00.612Z,4
2023-05-07T04:40:00.603Z,4
2023-05-07T04:45:00.624Z,3
2023-05-07T04:50:00.626Z,4
2023-05-07T04:55:00.645Z,3
2023-05-07T05:00:00.672Z,5
2023-05-07T05:05:00.625Z,5
2023-05-07T05:10:00.633Z,5
2023-05-07T05:15:00.604Z,4
2023-05-07T05:20:00.654Z,4
2023-05-07T05:25:00.662Z,5
2023-05-07T05:30:00.643Z,3
2023-05-07T05:35:00.627Z,3
2023-05-07T05:40:00.620Z,3
2023-05-07T05:45:00.599Z,4
2023-05-07T05:50:00.720Z,3
2023-05-07T05:55:00.645Z,3
2023-05-07T06:00:00.600Z,2
2023-05-07T06:05:00.665Z,1
2023-05-07T06:10:00.661Z,3
2023-05-07T06:15:00.629Z,3
2023-05-07T06:20:00.617Z,5
2023-05-07T06:25:00.632Z,3
2023-05-07T06:30:00.635Z,4
2023-05-07T06:35:00.613Z,4
2023-05-07T06:40:00.715Z,3
2023-05-07T06:45:00.642Z,5
2023-05-07T06:50:00.673Z,3
2023-05-07T06:55:00.669Z,3
2023-05-07T07:00:00.612Z,2
2023-05-07T07:05:00.672Z,5
2023-05-07T07:10:00.635Z,3
2023-05-07T07:15:00.625Z,3
2023-05-07T07:20:00.615Z,3
2023-05-07T07:25:00.625Z,3
2023-05-07T07:30:00.625Z,2
2023-05-07T07:35:00.620Z,3
2023-05-07T07:40:00.612Z,3
2023-05-07T07:45:00.617Z,2
2023-05-07T07:50:00.644Z,3
2023-05-07T07:55:00.691Z,4
2023-05-07T08:00:00.602Z,4
2023-05-07T08:05:00.640Z,4
2023-05-07T08:10:00.608Z,5
2023-05-07T08:15:00.618Z,4
2023-05-07T08:20:00.620Z,5
2023-05-07T08:25:00.652Z,5
2023-05-07T08:30:00.645Z,6
2023-05-07T08:35:00.628Z,4
2023-05-07T08:40:00.631Z,4
2023-05-07T08:45:00.631Z,4
2023-05-07T08:50:00.645Z,5
2023-05-07T08:55:00.665Z,5
2023-05-07T09:00:00.754Z,4
2023-05-07T09:05:00.633Z,8
2023-05-07T09:10:00.647Z,4
2023-05-07T09:15:00.621Z,5
2023-05-07T09:20:00.638Z,4
2023-05-07T09:25:00.632Z,5
2023-05-07T09:30:00.618Z,5
2023-05-07T09:35:00.625Z,5
2023-05-07T09:40:00.628Z,4
2023-05-07T09:45:00.652Z,5
2023-05-07T09:50:00.664Z,5
2023-05-07T09:55:00.639Z,4
2023-05-07T10:00:00.670Z,4
2023-05-07T10:05:00.779Z,5
2023-05-07T10:10:00.642Z,4
2023-05-07T10:15:00.653Z,4
2023-05-07T10:20:04.374Z,4
2023-05-07T10:25:00.591Z,4
2023-05-07T10:30:00.647Z,5
2023-05-07T10:35:00.631Z,5
2023-05-07T10:40:00.617Z,5
2023-05-07T10:45:00.665Z,3
2023-05-07T10:50:00.654Z,3
2023-05-07T10:55:00.629Z,4
2023-05-07T11:00:00.631Z,3
2023-05-07T11:05:00.684Z,4
2023-05-07T11:10:00.613Z,5
2023-05-07T11:15:00.640Z,5
2023-05-07T11:20:00.659Z,5
2023-05-07T11:25:00.626Z,5
2023-05-07T11:30:00.626Z,5
2023-05-07T11:35:00.651Z,3
2023-05-07T11:40:00.674Z,3
2023-05-07T11:45:00.592Z,5
2023-05-07T11:50:00.646Z,4
2023-05-07T11:55:00.610Z,4
2023-05-07T12:00:00.629Z,4
2023-05-07T12:05:00.705Z,3
2023-05-07T12:10:00.611Z,6
2023-05-07T12:15:00.632Z,3
2023-05-07T12:20:00.626Z,3
2023-05-07T12:25:00.758Z,5
2023-05-07T12:30:00.661Z,6
2023-05-07T12:35:00.673Z,4
2023-05-07T12:40:00.616Z,4
2023-05-07T12:45:00.670Z,4
2023-05-07T12:50:00.630Z,4
2023-05-07T12:55:00.687Z,4
2023-05-07T13:00:00.608Z,4
2023-05-07T13:05:00.644Z,5
2023-05-07T13:10:00.603Z,4
2023-05-07T13:15:00.805Z,4
2023-05-07T13:20:00.684Z,5
2023-05-07T13:25:00.640Z,4
2023-05-07T13:30:00.612Z,5
2023-05-07T13:35:00.645Z,3
2023-05-07T13:40:00.625Z,4
2023-05-07T13:45:00.642Z,6
2023-05-07T13:50:00.671Z,4
2023-05-07T13:55:00.594Z,4
2023-05-07T14:00:00.615Z,4
2023-05-07T14:05:00.648Z,4
2023-05-07T14:10:00.655Z,4
2023-05-07T14:15:00.602Z,2
2023-05-07T14:20:00.600Z,5
2023-05-07T14:25:06.682Z,4
2023-05-07T14:30:00.644Z,6
2023-05-07T14:35:00.621Z,4
2023-05-07T14:40:00.612Z,4
2023-05-07T14:45:00.633Z,4
2023-05-07T14:50:00.615Z,4
2023-05-07T14:55:00.639Z,3
2023-05-07T15:00:00.614Z,5
2023-05-07T15:05:00.654Z,4
2023-05-07T15:10:00.655Z,4
2023-05-07T15:15:00.637Z,5
2023-05-07T15:20:00.740Z,5
2023-05-07T15:25:00.624Z,4
2023-05-07T15:30:00.711Z,3
2023-05-07T15:35:00.617Z,4
2023-05-07T15:40:00.759Z,4
2023-05-07T15:45:00.647Z,3
2023-05-07T15:50:00.674Z,4
2023-05-07T15:55:00.714Z,3
2023-05-07T16:00:00.605Z,6
2023-05-07T16:05:00.633Z,5
2023-05-07T16:10:00.611Z,5
2023-05-07T16:15:00.627Z,5
2023-05-07T16:20:00.724Z,3
2023-05-07T16:25:00.646Z,4
2023-05-07T16:30:00.612Z,4
2023-05-07T16:35:00.623Z,2
2023-05-07T16:40:00.622Z,5
2023-05-07T16:45:00.680Z,4
2023-05-07T16:50:00.627Z,4
2023-05-07T16:55:00.636Z,5
2023-05-07T17:00:00.945Z,3
2023-05-07T17:05:00.633Z,3
2023-05-07T17:10:00.662Z,5
2023-05-07T17:15:00.663Z,6
2023-05-07T17:20:00.600Z,4
2023-05-07T17:25:00.634Z,4
2023-05-07T17:30:00.658Z,4
2023-05-07T17:35:00.853Z,3
2023-05-07T17:40:00.664Z,3
2023-05-07T17:45:00.646Z,4
2023-05-07T17:50:02.110Z,3
2023-05-07T17:55:00.623Z,3
2023-05-07T18:00:00.626Z,3
2023-05-07T18:05:00.690Z,3
2023-05-07T18:10:00.664Z,3
2023-05-07T18:15:00.649Z,4
2023-05-07T18:20:00.608Z,3
2023-05-07T18:25:00.628Z,3
2023-05-07T18:30:00.630Z,3
2023-05-07T18:35:00.642Z,4
2023-05-07T18:40:00.627Z,4
2023-05-07T18:45:00.632Z,3
2023-05-07T18:50:00.634Z,3
2023-05-07T18:55:00.657Z,2
2023-05-07T19:00:00.610Z,2
2023-05-07T19:05:00.630Z,3
2023-05-07T19:15:00.385Z,2
2023-05-07T19:20:00.233Z,2
2023-05-07T19:25:00.293Z,3
2023-05-07T19:30:00.246Z,3
2023-05-07T19:35:00.209Z,4
2023-05-07T19:40:00.237Z,3
2023-05-07T19:45:00.224Z,2
2023-05-07T19:50:00.323Z,3
2023-05-07T19:55:00.238Z,3
2023-05-07T20:00:00.248Z,3
2023-05-07T20:05:00.252Z,2
2023-05-07T20:10:00.300Z,2
2023-05-07T20:15:00.207Z,2
2023-05-07T20:20:00.297Z,1
2023-05-07T20:25:00.202Z,1
2023-05-07T20:30:00.281Z,1
2023-05-07T20:35:00.283Z,1
2023-05-07T20:40:00.290Z,1
2023-05-07T20:45:02.228Z,1
2023-05-07T20:50:00.275Z,1
2023-05-07T20:55:00.254Z,1
2023-05-07T21:00:00.213Z,2
2023-05-07T21:05:00.204Z,2
2023-05-07T21:10:00.285Z,1
2023-05-07T21:15:00.278Z,1
2023-05-07T21:20:00.257Z,1
2023-05-07T21:25:00.198Z,1
2023-05-07T21:30:00.242Z,1
2023-05-07T21:35:00.352Z,2
2023-05-07T21:40:00.239Z,1
2023-05-07T21:45:00.195Z,2
2023-05-07T21:50:00.254Z,1
2023-05-07T21:55:00.231Z,2
2023-05-07T22:00:00.277Z,3
2023-05-07T22:05:00.217Z,3
2023-05-07T22:10:00.240Z,1
2023-05-07T22:15:00.257Z,1
2023-05-07T22:20:00.233Z,1
2023-05-07T22:25:00.192Z,1
2023-05-07T22:30:00.245Z,1
2023-05-07T22:35:00.394Z,1
2023-05-07T22:40:00.246Z,1
2023-05-07T22:45:00.251Z,1
2023-05-07T22:50:00.246Z,1
2023-05-07T22:55:00.196Z,0
2023-05-07T23:00:00.279Z,1
2023-05-07T23:05:00.241Z,1
2023-05-07T23:10:00.227Z,1
2023-05-07T23:15:00.203Z,0
2023-05-07T23:20:00.291Z,1
2023-05-07T23:25:00.254Z,1
2023-05-07T23:30:00.232Z,1
2023-05-07T23:35:00.242Z,1
2023-05-07T23:40:00.233Z,1
2023-05-07T23:45:00.203Z,1
2023-05-07T23:50:00.281Z,1
2023-05-07T23:55:00.329Z,1
